sensor_id;sensor_type;location;lat;lon;timestamp;P1;durP1;ratioP1;P2;durP2;ratioP2
17564;SDS011;62994;52.126;5.596;2023-08-30T00:02:10;5.63;;;5.32;;
17564;SDS011;62994;52.126;5.596;2023-08-30T00:04:39;5.55;;;5.25;;
17564;SDS011;62994;52.126;5.596;2023-08-30T00:07:06;5.28;;;4.88;;
17564;SDS011;62994;52.126;5.596;2023-08-30T00:09:33;5.80;;;5.30;;
17564;SDS011;62994;52.126;5.596;2023-08-30T00:12:07;5.47;;;5.18;;
17564;SDS011;62994;52.126;5.596;2023-08-30T00:14:34;6.05;;;5.65;;
17564;SDS011;62994;52.126;5.596;2023-08-30T00:17:20;4.93;;;4.63;;
17564;SDS011;62994;52.126;5.596;2023-08-30T00:19:47;5.88;;;5.57;;
17564;SDS011;62994;52.126;5.596;2023-08-30T00:22:18;5.57;;;5.28;;
17564;SDS011;62994;52.126;5.596;2023-08-30T00:24:45;6.15;;;5.68;;
17564;SDS011;62994;52.126;5.596;2023-08-30T00:27:13;5.28;;;4.97;;
17564;SDS011;62994;52.126;5.596;2023-08-30T00:29:45;5.85;;;5.35;;
17564;SDS011;62994;52.126;5.596;2023-08-30T00:32:14;5.75;;;5.45;;
17564;SDS011;62994;52.126;5.596;2023-08-30T00:34:49;6.55;;;5.18;;
17564;SDS011;62994;52.126;5.596;2023-08-30T00:37:34;5.40;;;5.10;;
17564;SDS011;62994;52.126;5.596;2023-08-30T00:40:03;5.60;;;5.20;;
17564;SDS011;62994;52.126;5.596;2023-08-30T00:42:33;5.70;;;5.40;;
17564;SDS011;62994;52.126;5.596;2023-08-30T00:45:00;5.15;;;4.80;;
17564;SDS011;62994;52.126;5.596;2023-08-30T00:47:27;5.47;;;5.20;;
17564;SDS011;62994;52.126;5.596;2023-08-30T00:49:57;6.30;;;5.90;;
17564;SDS011;62994;52.126;5.596;2023-08-30T00:52:24;6.65;;;6.05;;
17564;SDS011;62994;52.126;5.596;2023-08-30T00:54:51;5.95;;;5.45;;
17564;SDS011;62994;52.126;5.596;2023-08-30T00:57:19;6.20;;;5.90;;
17564;SDS011;62994;52.126;5.596;2023-08-30T00:59:49;6.30;;;5.97;;
17564;SDS011;62994;52.126;5.596;2023-08-30T01:02:27;5.97;;;5.68;;
17564;SDS011;62994;52.126;5.596;2023-08-30T01:04:54;5.93;;;5.53;;
17564;SDS011;62994;52.126;5.596;2023-08-30T01:07:23;6.55;;;6.15;;
17564;SDS011;62994;52.126;5.596;2023-08-30T01:09:52;6.38;;;5.85;;
17564;SDS011;62994;52.126;5.596;2023-08-30T01:12:20;6.55;;;6.25;;
17564;SDS011;62994;52.126;5.596;2023-08-30T01:14:52;6.40;;;5.90;;
17564;SDS011;62994;52.126;5.596;2023-08-30T01:17:41;6.25;;;5.85;;
17564;SDS011;62994;52.126;5.596;2023-08-30T01:20:09;6.93;;;6.38;;
17564;SDS011;62994;52.126;5.596;2023-08-30T01:22:45;7.32;;;6.85;;
17564;SDS011;62994;52.126;5.596;2023-08-30T01:25:24;6.47;;;6.18;;
17564;SDS011;62994;52.126;5.596;2023-08-30T01:28:02;6.70;;;6.30;;
17564;SDS011;62994;52.126;5.596;2023-08-30T01:30:32;6.82;;;6.50;;
17564;SDS011;62994;52.126;5.596;2023-08-30T01:33:02;6.72;;;6.43;;
17564;SDS011;62994;52.126;5.596;2023-08-30T01:35:34;6.50;;;6.10;;
17564;SDS011;62994;52.126;5.596;2023-08-30T01:38:02;6.78;;;6.35;;
17564;SDS011;62994;52.126;5.596;2023-08-30T01:40:33;7.20;;;6.70;;
17564;SDS011;62994;52.126;5.596;2023-08-30T01:43:07;7.18;;;6.68;;
17564;SDS011;62994;52.126;5.596;2023-08-30T01:45:36;7.25;;;6.75;;
17564;SDS011;62994;52.126;5.596;2023-08-30T01:48:07;6.75;;;6.10;;
17564;SDS011;62994;52.126;5.596;2023-08-30T01:50:37;6.90;;;6.35;;
17564;SDS011;62994;52.126;5.596;2023-08-30T01:53:11;6.50;;;6.18;;
17564;SDS011;62994;52.126;5.596;2023-08-30T01:55:39;6.75;;;6.35;;
17564;SDS011;62994;52.126;5.596;2023-08-30T01:58:08;6.60;;;6.22;;
17564;SDS011;62994;52.126;5.596;2023-08-30T02:00:36;7.03;;;6.43;;
17564;SDS011;62994;52.126;5.596;2023-08-30T02:03:08;6.68;;;6.28;;
17564;SDS011;62994;52.126;5.596;2023-08-30T02:05:37;6.40;;;6.10;;
17564;SDS011;62994;52.126;5.596;2023-08-30T02:08:14;6.68;;;6.28;;
17564;SDS011;62994;52.126;5.596;2023-08-30T02:10:45;6.32;;;5.93;;
17564;SDS011;62994;52.126;5.596;2023-08-30T02:13:18;6.95;;;6.40;;
17564;SDS011;62994;52.126;5.596;2023-08-30T02:15:56;6.55;;;6.20;;
17564;SDS011;62994;52.126;5.596;2023-08-30T02:18:44;6.80;;;6.30;;
17564;SDS011;62994;52.126;5.596;2023-08-30T02:21:28;6.32;;;5.80;;
17564;SDS011;62994;52.126;5.596;2023-08-30T02:24:02;6.68;;;6.25;;
17564;SDS011;62994;52.126;5.596;2023-08-30T02:26:48;6.97;;;6.32;;
17564;SDS011;62994;52.126;5.596;2023-08-30T02:29:21;7.00;;;6.60;;
17564;SDS011;62994;52.126;5.596;2023-08-30T02:31:59;7.70;;;7.10;;
17564;SDS011;62994;52.126;5.596;2023-08-30T02:34:31;7.35;;;6.85;;
17564;SDS011;62994;52.126;5.596;2023-08-30T02:37:05;7.22;;;6.72;;
17564;SDS011;62994;52.126;5.596;2023-08-30T02:39:35;7.13;;;6.63;;
17564;SDS011;62994;52.126;5.596;2023-08-30T02:42:06;6.88;;;6.47;;
17564;SDS011;62994;52.126;5.596;2023-08-30T02:47:44;8.15;;;7.47;;
17564;SDS011;62994;52.126;5.596;2023-08-30T02:50:16;7.35;;;6.68;;
17564;SDS011;62994;52.126;5.596;2023-08-30T02:52:47;8.98;;;8.38;;
17564;SDS011;62994;52.126;5.596;2023-08-30T02:55:18;8.13;;;7.63;;
17564;SDS011;62994;52.126;5.596;2023-08-30T02:58:05;7.53;;;7.13;;
17564;SDS011;62994;52.126;5.596;2023-08-30T03:00:38;8.30;;;7.68;;
17564;SDS011;62994;52.126;5.596;2023-08-30T03:03:40;8.27;;;7.53;;
17564;SDS011;62994;52.126;5.596;2023-08-30T03:06:13;8.77;;;7.85;;
17564;SDS011;62994;52.126;5.596;2023-08-30T03:08:58;7.15;;;6.75;;
17564;SDS011;62994;52.126;5.596;2023-08-30T03:11:40;7.93;;;7.30;;
17564;SDS011;62994;52.126;5.596;2023-08-30T03:14:18;8.70;;;8.00;;
17564;SDS011;62994;52.126;5.596;2023-08-30T03:16:53;9.00;;;8.45;;
17564;SDS011;62994;52.126;5.596;2023-08-30T03:19:35;8.02;;;7.53;;
17564;SDS011;62994;52.126;5.596;2023-08-30T03:22:09;8.35;;;7.65;;
17564;SDS011;62994;52.126;5.596;2023-08-30T03:24:43;9.48;;;8.77;;
17564;SDS011;62994;52.126;5.596;2023-08-30T03:27:22;8.73;;;8.02;;
17564;SDS011;62994;52.126;5.596;2023-08-30T03:30:20;9.85;;;8.90;;
17564;SDS011;62994;52.126;5.596;2023-08-30T03:32:53;9.48;;;8.88;;
17564;SDS011;62994;52.126;5.596;2023-08-30T03:35:21;9.02;;;8.13;;
17564;SDS011;62994;52.126;5.596;2023-08-30T03:38:27;8.65;;;8.05;;
17564;SDS011;62994;52.126;5.596;2023-08-30T03:41:01;9.52;;;8.80;;
17564;SDS011;62994;52.126;5.596;2023-08-30T03:43:33;9.38;;;8.65;;
17564;SDS011;62994;52.126;5.596;2023-08-30T03:46:10;9.45;;;8.85;;
17564;SDS011;62994;52.126;5.596;2023-08-30T03:49:08;7.97;;;7.47;;
17564;SDS011;62994;52.126;5.596;2023-08-30T03:51:55;9.70;;;8.90;;
17564;SDS011;62994;52.126;5.596;2023-08-30T03:54:24;9.43;;;8.57;;
17564;SDS011;62994;52.126;5.596;2023-08-30T03:57:03;9.02;;;8.23;;
17564;SDS011;62994;52.126;5.596;2023-08-30T03:59:47;8.90;;;8.30;;
17564;SDS011;62994;52.126;5.596;2023-08-30T04:02:18;9.15;;;8.45;;
17564;SDS011;62994;52.126;5.596;2023-08-30T04:04:53;8.68;;;7.97;;
17564;SDS011;62994;52.126;5.596;2023-08-30T04:07:27;9.10;;;8.40;;
17564;SDS011;62994;52.126;5.596;2023-08-30T04:09:57;9.30;;;8.60;;
17564;SDS011;62994;52.126;5.596;2023-08-30T04:12:37;8.18;;;7.68;;
17564;SDS011;62994;52.126;5.596;2023-08-30T04:15:07;9.38;;;8.57;;
17564;SDS011;62994;52.126;5.596;2023-08-30T04:17:40;9.18;;;8.48;;
17564;SDS011;62994;52.126;5.596;2023-08-30T04:27:38;9.18;;;8.38;;
17564;SDS011;62994;52.126;5.596;2023-08-30T04:30:53;9.18;;;8.45;;
17564;SDS011;62994;52.126;5.596;2023-08-30T04:33:21;8.55;;;7.85;;
17564;SDS011;62994;52.126;5.596;2023-08-30T04:36:01;8.73;;;8.02;;
17564;SDS011;62994;52.126;5.596;2023-08-30T04:38:58;8.30;;;7.72;;
17564;SDS011;62994;52.126;5.596;2023-08-30T04:41:32;8.15;;;7.45;;
17564;SDS011;62994;52.126;5.596;2023-08-30T04:44:02;7.97;;;7.47;;
17564;SDS011;62994;52.126;5.596;2023-08-30T04:46:40;8.77;;;8.18;;
17564;SDS011;62994;52.126;5.596;2023-08-30T04:49:17;8.68;;;7.97;;
17564;SDS011;62994;52.126;5.596;2023-08-30T04:51:52;9.02;;;8.30;;
17564;SDS011;62994;52.126;5.596;2023-08-30T04:54:22;8.48;;;7.78;;
17564;SDS011;62994;52.126;5.596;2023-08-30T04:56:51;9.60;;;7.93;;
17564;SDS011;62994;52.126;5.596;2023-08-30T04:59:20;9.32;;;8.57;;
17564;SDS011;62994;52.126;5.596;2023-08-30T05:01:53;9.35;;;8.73;;
17564;SDS011;62994;52.126;5.596;2023-08-30T05:04:23;8.95;;;8.25;;
17564;SDS011;62994;52.126;5.596;2023-08-30T05:07:00;9.02;;;8.13;;
17564;SDS011;62994;52.126;5.596;2023-08-30T05:09:32;8.52;;;7.72;;
17564;SDS011;62994;52.126;5.596;2023-08-30T05:12:10;8.98;;;8.27;;
17564;SDS011;62994;52.126;5.596;2023-08-30T05:14:39;9.85;;;8.95;;
17564;SDS011;62994;52.126;5.596;2023-08-30T05:17:07;9.10;;;8.32;;
17564;SDS011;62994;52.126;5.596;2023-08-30T05:19:37;8.98;;;8.27;;
17564;SDS011;62994;52.126;5.596;2023-08-30T05:22:05;9.30;;;8.50;;
17564;SDS011;62994;52.126;5.596;2023-08-30T05:24:32;8.55;;;8.02;;
17564;SDS011;62994;52.126;5.596;2023-08-30T05:27:04;9.77;;;8.88;;
17564;SDS011;62994;52.126;5.596;2023-08-30T05:29:35;9.07;;;8.38;;
17564;SDS011;62994;52.126;5.596;2023-08-30T05:32:10;9.75;;;8.95;;
17564;SDS011;62994;52.126;5.596;2023-08-30T05:34:40;9.32;;;8.63;;
17564;SDS011;62994;52.126;5.596;2023-08-30T05:37:13;9.85;;;8.90;;
17564;SDS011;62994;52.126;5.596;2023-08-30T05:39:46;9.18;;;8.43;;
17564;SDS011;62994;52.126;5.596;2023-08-30T05:42:19;9.65;;;8.77;;
17564;SDS011;62994;52.126;5.596;2023-08-30T05:44:54;13.30;;;8.48;;
17564;SDS011;62994;52.126;5.596;2023-08-30T05:47:33;10.23;;;9.13;;
17564;SDS011;62994;52.126;5.596;2023-08-30T05:50:19;8.77;;;8.15;;
17564;SDS011;62994;52.126;5.596;2023-08-30T05:52:49;10.13;;;8.55;;
17564;SDS011;62994;52.126;5.596;2023-08-30T05:55:17;7.70;;;7.20;;
17564;SDS011;62994;52.126;5.596;2023-08-30T05:57:51;9.73;;;8.25;;
17564;SDS011;62994;52.126;5.596;2023-08-30T06:00:24;10.32;;;9.63;;
17564;SDS011;62994;52.126;5.596;2023-08-30T06:02:55;10.13;;;9.10;;
17564;SDS011;62994;52.126;5.596;2023-08-30T06:05:25;8.57;;;7.80;;
17564;SDS011;62994;52.126;5.596;2023-08-30T06:08:02;8.50;;;7.88;;
17564;SDS011;62994;52.126;5.596;2023-08-30T06:10:45;8.88;;;8.07;;
17564;SDS011;62994;52.126;5.596;2023-08-30T06:13:17;8.68;;;7.97;;
17564;SDS011;62994;52.126;5.596;2023-08-30T06:15:58;8.57;;;7.88;;
17564;SDS011;62994;52.126;5.596;2023-08-30T06:21:02;8.10;;;7.45;;
17564;SDS011;62994;52.126;5.596;2023-08-30T06:23:38;7.63;;;7.13;;
17564;SDS011;62994;52.126;5.596;2023-08-30T06:26:09;8.88;;;8.30;;
17564;SDS011;62994;52.126;5.596;2023-08-30T06:28:38;8.77;;;7.82;;
17564;SDS011;62994;52.126;5.596;2023-08-30T06:31:13;9.65;;;8.85;;
17564;SDS011;62994;52.126;5.596;2023-08-30T06:34:00;9.15;;;8.43;;
17564;SDS011;62994;52.126;5.596;2023-08-30T06:36:32;7.88;;;7.32;;
17564;SDS011;62994;52.126;5.596;2023-08-30T06:39:08;8.55;;;7.82;;
17564;SDS011;62994;52.126;5.596;2023-08-30T06:41:41;9.10;;;8.20;;
17564;SDS011;62994;52.126;5.596;2023-08-30T06:44:13;9.23;;;8.48;;
17564;SDS011;62994;52.126;5.596;2023-08-30T06:46:45;8.15;;;7.70;;
17564;SDS011;62994;52.126;5.596;2023-08-30T06:49:27;8.73;;;7.78;;
17564;SDS011;62994;52.126;5.596;2023-08-30T06:52:00;9.15;;;8.20;;
17564;SDS011;62994;52.126;5.596;2023-08-30T06:54:36;8.48;;;7.80;;
17564;SDS011;62994;52.126;5.596;2023-08-30T06:57:08;8.77;;;8.18;;
17564;SDS011;62994;52.126;5.596;2023-08-30T06:59:45;8.70;;;7.80;;
17564;SDS011;62994;52.126;5.596;2023-08-30T07:02:15;8.75;;;7.93;;
17564;SDS011;62994;52.126;5.596;2023-08-30T07:04:45;8.25;;;7.65;;
17564;SDS011;62994;52.126;5.596;2023-08-30T07:07:22;8.90;;;8.20;;
17564;SDS011;62994;52.126;5.596;2023-08-30T07:09:59;9.20;;;8.20;;
17564;SDS011;62994;52.126;5.596;2023-08-30T07:12:31;8.23;;;7.63;;
17564;SDS011;62994;52.126;5.596;2023-08-30T07:15:00;8.77;;;8.02;;
17564;SDS011;62994;52.126;5.596;2023-08-30T07:17:34;8.15;;;7.53;;
17564;SDS011;62994;52.126;5.596;2023-08-30T07:20:12;8.32;;;7.72;;
17564;SDS011;62994;52.126;5.596;2023-08-30T07:22:53;8.65;;;7.85;;
17564;SDS011;62994;52.126;5.596;2023-08-30T07:25:25;7.22;;;6.72;;
17564;SDS011;62994;52.126;5.596;2023-08-30T07:27:54;8.98;;;7.88;;
17564;SDS011;62994;52.126;5.596;2023-08-30T07:30:25;8.18;;;7.53;;
17564;SDS011;62994;52.126;5.596;2023-08-30T07:32:53;8.77;;;7.78;;
17564;SDS011;62994;52.126;5.596;2023-08-30T07:35:25;10.93;;;7.38;;
17564;SDS011;62994;52.126;5.596;2023-08-30T07:37:54;7.68;;;7.18;;
17564;SDS011;62994;52.126;5.596;2023-08-30T07:40:24;7.97;;;7.15;;
17564;SDS011;62994;52.126;5.596;2023-08-30T07:42:54;7.57;;;6.93;;
17564;SDS011;62994;52.126;5.596;2023-08-30T07:45:25;7.95;;;7.35;;
17564;SDS011;62994;52.126;5.596;2023-08-30T07:47:52;8.30;;;7.72;;
17564;SDS011;62994;52.126;5.596;2023-08-30T07:50:20;8.80;;;8.07;;
17564;SDS011;62994;52.126;5.596;2023-08-30T07:52:50;8.60;;;8.02;;
17564;SDS011;62994;52.126;5.596;2023-08-30T07:55:21;8.98;;;8.23;;
17564;SDS011;62994;52.126;5.596;2023-08-30T07:57:49;8.82;;;8.27;;
17564;SDS011;62994;52.126;5.596;2023-08-30T08:00:22;9.10;;;8.30;;
17564;SDS011;62994;52.126;5.596;2023-08-30T08:02:55;8.80;;;8.20;;
17564;SDS011;62994;52.126;5.596;2023-08-30T08:05:23;9.75;;;9.02;;
17564;SDS011;62994;52.126;5.596;2023-08-30T08:07:54;10.32;;;9.38;;
17564;SDS011;62994;52.126;5.596;2023-08-30T08:10:36;8.40;;;7.68;;
17564;SDS011;62994;52.126;5.596;2023-08-30T08:13:05;8.73;;;8.13;;
17564;SDS011;62994;52.126;5.596;2023-08-30T08:15:34;9.68;;;8.73;;
17564;SDS011;62994;52.126;5.596;2023-08-30T08:18:05;8.35;;;7.80;;
17564;SDS011;62994;52.126;5.596;2023-08-30T08:20:34;8.88;;;8.15;;
17564;SDS011;62994;52.126;5.596;2023-08-30T08:23:08;8.55;;;7.95;;
17564;SDS011;62994;52.126;5.596;2023-08-30T08:25:37;7.25;;;6.80;;
17564;SDS011;62994;52.126;5.596;2023-08-30T08:28:10;8.35;;;7.53;;
17564;SDS011;62994;52.126;5.596;2023-08-30T08:30:41;8.02;;;7.43;;
17564;SDS011;62994;52.126;5.596;2023-08-30T08:33:10;7.28;;;6.82;;
17564;SDS011;62994;52.126;5.596;2023-08-30T08:35:37;7.35;;;6.75;;
17564;SDS011;62994;52.126;5.596;2023-08-30T08:38:09;6.85;;;6.45;;
17564;SDS011;62994;52.126;5.596;2023-08-30T08:40:39;7.30;;;6.90;;
17564;SDS011;62994;52.126;5.596;2023-08-30T08:43:06;7.68;;;7.07;;
17564;SDS011;62994;52.126;5.596;2023-08-30T08:45:41;6.82;;;6.32;;
17564;SDS011;62994;52.126;5.596;2023-08-30T08:48:17;6.28;;;5.88;;
17564;SDS011;62994;52.126;5.596;2023-08-30T08:50:48;7.30;;;6.25;;
17564;SDS011;62994;52.126;5.596;2023-08-30T08:53:21;6.40;;;6.00;;
17564;SDS011;62994;52.126;5.596;2023-08-30T08:55:51;6.57;;;6.07;;
17564;SDS011;62994;52.126;5.596;2023-08-30T08:58:41;6.93;;;6.43;;
17564;SDS011;62994;52.126;5.596;2023-08-30T09:01:12;7.38;;;6.32;;
17564;SDS011;62994;52.126;5.596;2023-08-30T09:03:46;5.93;;;5.55;;
17564;SDS011;62994;52.126;5.596;2023-08-30T09:06:19;6.32;;;5.90;;
17564;SDS011;62994;52.126;5.596;2023-08-30T09:08:56;7.28;;;6.40;;
17564;SDS011;62994;52.126;5.596;2023-08-30T09:11:32;7.70;;;7.20;;
17564;SDS011;62994;52.126;5.596;2023-08-30T09:14:02;6.78;;;6.38;;
17564;SDS011;62994;52.126;5.596;2023-08-30T09:16:35;6.75;;;6.35;;
17564;SDS011;62994;52.126;5.596;2023-08-30T09:19:05;6.55;;;6.25;;
17564;SDS011;62994;52.126;5.596;2023-08-30T09:21:49;6.30;;;5.90;;
17564;SDS011;62994;52.126;5.596;2023-08-30T09:24:24;7.13;;;6.68;;
17564;SDS011;62994;52.126;5.596;2023-08-30T09:26:54;7.28;;;6.88;;
17564;SDS011;62994;52.126;5.596;2023-08-30T09:29:21;6.60;;;6.10;;
17564;SDS011;62994;52.126;5.596;2023-08-30T09:31:53;7.07;;;6.65;;
17564;SDS011;62994;52.126;5.596;2023-08-30T09:34:27;6.45;;;6.13;;
17564;SDS011;62994;52.126;5.596;2023-08-30T09:36:57;7.18;;;6.55;;
17564;SDS011;62994;52.126;5.596;2023-08-30T09:39:28;7.10;;;6.53;;
17564;SDS011;62994;52.126;5.596;2023-08-30T09:42:01;6.75;;;6.35;;
17564;SDS011;62994;52.126;5.596;2023-08-30T09:44:33;6.28;;;5.80;;
17564;SDS011;62994;52.126;5.596;2023-08-30T09:47:02;7.30;;;6.90;;
17564;SDS011;62994;52.126;5.596;2023-08-30T09:49:42;6.68;;;6.32;;
17564;SDS011;62994;52.126;5.596;2023-08-30T09:52:12;6.53;;;6.13;;
17564;SDS011;62994;52.126;5.596;2023-08-30T09:54:46;6.70;;;6.18;;
17564;SDS011;62994;52.126;5.596;2023-08-30T09:57:17;6.15;;;5.85;;
17564;SDS011;62994;52.126;5.596;2023-08-30T09:59:48;6.95;;;6.55;;
17564;SDS011;62994;52.126;5.596;2023-08-30T10:02:16;6.93;;;6.53;;
17564;SDS011;62994;52.126;5.596;2023-08-30T10:04:52;6.60;;;6.10;;
17564;SDS011;62994;52.126;5.596;2023-08-30T10:07:28;6.75;;;6.45;;
17564;SDS011;62994;52.126;5.596;2023-08-30T10:10:09;6.75;;;6.30;;
17564;SDS011;62994;52.126;5.596;2023-08-30T10:12:45;7.47;;;6.90;;
17564;SDS011;62994;52.126;5.596;2023-08-30T10:15:18;6.80;;;6.50;;
17564;SDS011;62994;52.126;5.596;2023-08-30T10:17:52;6.82;;;6.53;;
17564;SDS011;62994;52.126;5.596;2023-08-30T10:20:28;7.47;;;7.00;;
17564;SDS011;62994;52.126;5.596;2023-08-30T10:22:59;8.20;;;7.70;;
17564;SDS011;62994;52.126;5.596;2023-08-30T10:25:35;7.13;;;6.82;;
17564;SDS011;62994;52.126;5.596;2023-08-30T10:28:16;8.05;;;7.65;;
17564;SDS011;62994;52.126;5.596;2023-08-30T10:30:58;8.23;;;7.53;;
17564;SDS011;62994;52.126;5.596;2023-08-30T10:33:30;7.50;;;7.20;;
17564;SDS011;62994;52.126;5.596;2023-08-30T10:36:21;6.93;;;6.55;;
17564;SDS011;62994;52.126;5.596;2023-08-30T10:39:27;8.20;;;7.80;;
17564;SDS011;62994;52.126;5.596;2023-08-30T10:42:17;9.05;;;8.50;;
17564;SDS011;62994;52.126;5.596;2023-08-30T10:44:56;8.15;;;7.75;;
17564;SDS011;62994;52.126;5.596;2023-08-30T10:47:27;8.95;;;8.45;;
17564;SDS011;62994;52.126;5.596;2023-08-30T10:50:04;9.70;;;9.18;;
17564;SDS011;62994;52.126;5.596;2023-08-30T10:52:37;8.32;;;7.88;;
17564;SDS011;62994;52.126;5.596;2023-08-30T10:55:06;8.07;;;7.68;;
17564;SDS011;62994;52.126;5.596;2023-08-30T10:57:41;6.97;;;6.68;;
17564;SDS011;62994;52.126;5.596;2023-08-30T11:00:11;6.45;;;6.15;;
17564;SDS011;62994;52.126;5.596;2023-08-30T11:03:01;5.82;;;5.63;;
17564;SDS011;62994;52.126;5.596;2023-08-30T11:05:32;6.03;;;5.72;;
17564;SDS011;62994;52.126;5.596;2023-08-30T11:08:27;5.50;;;5.10;;
17564;SDS011;62994;52.126;5.596;2023-08-30T11:11:02;5.35;;;5.15;;
17564;SDS011;62994;52.126;5.596;2023-08-30T11:13:59;4.57;;;4.38;;
17564;SDS011;62994;52.126;5.596;2023-08-30T11:16:32;4.95;;;4.55;;
17564;SDS011;62994;52.126;5.596;2023-08-30T11:19:13;4.68;;;4.35;;
17564;SDS011;62994;52.126;5.596;2023-08-30T11:22:03;4.25;;;4.05;;
17564;SDS011;62994;52.126;5.596;2023-08-30T11:24:37;3.92;;;3.53;;
17564;SDS011;62994;52.126;5.596;2023-08-30T11:27:12;3.60;;;3.40;;
17564;SDS011;62994;52.126;5.596;2023-08-30T11:29:45;3.45;;;3.25;;
17564;SDS011;62994;52.126;5.596;2023-08-30T11:32:54;3.75;;;2.65;;
17564;SDS011;62994;52.126;5.596;2023-08-30T11:35:24;3.38;;;2.90;;
17564;SDS011;62994;52.126;5.596;2023-08-30T11:38:11;3.67;;;2.85;;
17564;SDS011;62994;52.126;5.596;2023-08-30T11:40:45;5.35;;;3.00;;
17564;SDS011;62994;52.126;5.596;2023-08-30T11:43:19;3.85;;;2.90;;
17564;SDS011;62994;52.126;5.596;2023-08-30T11:45:56;3.22;;;2.92;;
17564;SDS011;62994;52.126;5.596;2023-08-30T11:48:36;2.92;;;2.67;;
17564;SDS011;62994;52.126;5.596;2023-08-30T11:51:22;3.20;;;2.70;;
17564;SDS011;62994;52.126;5.596;2023-08-30T11:53:56;2.90;;;2.70;;
17564;SDS011;62994;52.126;5.596;2023-08-30T11:56:27;2.60;;;2.40;;
17564;SDS011;62994;52.126;5.596;2023-08-30T11:58:59;2.70;;;2.40;;
17564;SDS011;62994;52.126;5.596;2023-08-30T12:01:28;4.22;;;2.70;;
17564;SDS011;62994;52.126;5.596;2023-08-30T12:03:56;4.28;;;2.67;;
17564;SDS011;62994;52.126;5.596;2023-08-30T12:06:27;2.10;;;1.90;;
17564;SDS011;62994;52.126;5.596;2023-08-30T12:09:11;2.25;;;2.10;;
17564;SDS011;62994;52.126;5.596;2023-08-30T12:11:40;3.10;;;2.50;;
17564;SDS011;62994;52.126;5.596;2023-08-30T12:14:11;4.22;;;2.28;;
17564;SDS011;62994;52.126;5.596;2023-08-30T12:16:45;4.05;;;2.33;;
17564;SDS011;62994;52.126;5.596;2023-08-30T12:19:25;6.68;;;2.00;;
17564;SDS011;62994;52.126;5.596;2023-08-30T12:22:08;3.83;;;1.83;;
17564;SDS011;62994;52.126;5.596;2023-08-30T12:24:44;1.95;;;1.77;;
17564;SDS011;62994;52.126;5.596;2023-08-30T12:27:15;7.30;;;2.63;;
17564;SDS011;62994;52.126;5.596;2023-08-30T12:29:55;5.07;;;2.30;;
17564;SDS011;62994;52.126;5.596;2023-08-30T12:32:25;4.43;;;2.35;;
17564;SDS011;62994;52.126;5.596;2023-08-30T12:34:57;5.20;;;2.50;;
17564;SDS011;62994;52.126;5.596;2023-08-30T12:37:39;3.38;;;2.25;;
17564;SDS011;62994;52.126;5.596;2023-08-30T12:40:13;3.85;;;2.40;;
17564;SDS011;62994;52.126;5.596;2023-08-30T12:43:04;3.10;;;1.80;;
17564;SDS011;62994;52.126;5.596;2023-08-30T12:45:41;3.53;;;2.28;;
17564;SDS011;62994;52.126;5.596;2023-08-30T12:48:17;3.88;;;1.90;;
17564;SDS011;62994;52.126;5.596;2023-08-30T12:50:48;2.78;;;1.83;;
17564;SDS011;62994;52.126;5.596;2023-08-30T12:53:24;4.10;;;2.00;;
17564;SDS011;62994;52.126;5.596;2023-08-30T12:58:56;3.15;;;1.85;;
17564;SDS011;62994;52.126;5.596;2023-08-30T13:01:31;3.53;;;1.90;;
17564;SDS011;62994;52.126;5.596;2023-08-30T13:04:34;5.25;;;2.33;;
17564;SDS011;62994;52.126;5.596;2023-08-30T13:07:24;4.25;;;2.10;;
17564;SDS011;62994;52.126;5.596;2023-08-30T13:10:18;4.85;;;1.77;;
17564;SDS011;62994;52.126;5.596;2023-08-30T13:13:09;4.80;;;2.00;;
17564;SDS011;62994;52.126;5.596;2023-08-30T13:15:51;4.53;;;2.17;;
17564;SDS011;62994;52.126;5.596;2023-08-30T13:18:27;3.35;;;1.85;;
17564;SDS011;62994;52.126;5.596;2023-08-30T13:21:13;3.38;;;1.90;;
17564;SDS011;62994;52.126;5.596;2023-08-30T13:23:49;2.35;;;2.10;;
17564;SDS011;62994;52.126;5.596;2023-08-30T13:26:19;3.35;;;2.03;;
17564;SDS011;62994;52.126;5.596;2023-08-30T13:28:49;1.98;;;1.58;;
17564;SDS011;62994;52.126;5.596;2023-08-30T13:31:47;2.25;;;2.05;;
17564;SDS011;62994;52.126;5.596;2023-08-30T13:34:27;3.40;;;1.80;;
17564;SDS011;62994;52.126;5.596;2023-08-30T13:39:55;2.65;;;1.73;;
17564;SDS011;62994;52.126;5.596;2023-08-30T13:42:50;2.30;;;1.70;;
17564;SDS011;62994;52.126;5.596;2023-08-30T13:45:39;3.90;;;1.80;;
17564;SDS011;62994;52.126;5.596;2023-08-30T13:48:19;3.88;;;1.60;;
17564;SDS011;62994;52.126;5.596;2023-08-30T13:51:05;3.10;;;2.00;;
17564;SDS011;62994;52.126;5.596;2023-08-30T13:56:51;4.93;;;1.77;;
17564;SDS011;62994;52.126;5.596;2023-08-30T13:59:33;2.67;;;1.92;;
17564;SDS011;62994;52.126;5.596;2023-08-30T14:02:10;2.17;;;1.67;;
17564;SDS011;62994;52.126;5.596;2023-08-30T14:04:41;2.60;;;1.77;;
17564;SDS011;62994;52.126;5.596;2023-08-30T14:07:09;3.75;;;1.83;;
17564;SDS011;62994;52.126;5.596;2023-08-30T14:09:53;3.38;;;1.48;;
17564;SDS011;62994;52.126;5.596;2023-08-30T14:12:38;2.67;;;1.70;;
17564;SDS011;62994;52.126;5.596;2023-08-30T14:18:00;2.92;;;2.40;;
17564;SDS011;62994;52.126;5.596;2023-08-30T14:20:35;3.50;;;2.20;;
17564;SDS011;62994;52.126;5.596;2023-08-30T14:23:21;1.92;;;1.77;;
17564;SDS011;62994;52.126;5.596;2023-08-30T14:26:06;5.63;;;2.17;;
17564;SDS011;62994;52.126;5.596;2023-08-30T14:28:42;4.18;;;1.90;;
17564;SDS011;62994;52.126;5.596;2023-08-30T14:31:13;4.20;;;1.30;;
17564;SDS011;62994;52.126;5.596;2023-08-30T14:36:35;2.08;;;1.30;;
17564;SDS011;62994;52.126;5.596;2023-08-30T14:39:14;2.28;;;1.38;;
17564;SDS011;62994;52.126;5.596;2023-08-30T14:41:46;1.88;;;1.45;;
17564;SDS011;62994;52.126;5.596;2023-08-30T14:55:19;2.95;;;1.45;;
17564;SDS011;62994;52.126;5.596;2023-08-30T14:57:47;3.00;;;1.30;;
17564;SDS011;62994;52.126;5.596;2023-08-30T15:00:14;1.20;;;1.15;;
17564;SDS011;62994;52.126;5.596;2023-08-30T15:02:43;2.75;;;1.60;;
17564;SDS011;62994;52.126;5.596;2023-08-30T15:05:12;1.70;;;1.60;;
17564;SDS011;62994;52.126;5.596;2023-08-30T15:07:45;2.28;;;1.50;;
17564;SDS011;62994;52.126;5.596;2023-08-30T15:10:12;1.15;;;1.00;;
17564;SDS011;62994;52.126;5.596;2023-08-30T15:12:57;1.13;;;1.02;;
17564;SDS011;62994;52.126;5.596;2023-08-30T15:15:24;1.40;;;1.10;;
17564;SDS011;62994;52.126;5.596;2023-08-30T15:17:53;1.30;;;0.80;;
17564;SDS011;62994;52.126;5.596;2023-08-30T15:20:20;1.55;;;1.02;;
17564;SDS011;62994;52.126;5.596;2023-08-30T15:22:47;1.42;;;1.33;;
17564;SDS011;62994;52.126;5.596;2023-08-30T15:25:14;2.33;;;1.20;;
17564;SDS011;62994;52.126;5.596;2023-08-30T15:27:43;1.45;;;1.00;;
17564;SDS011;62994;52.126;5.596;2023-08-30T15:30:17;4.10;;;1.38;;
17564;SDS011;62994;52.126;5.596;2023-08-30T15:32:44;2.30;;;1.33;;
17564;SDS011;62994;52.126;5.596;2023-08-30T15:35:11;1.75;;;1.65;;
17564;SDS011;62994;52.126;5.596;2023-08-30T15:37:43;1.10;;;1.00;;
17564;SDS011;62994;52.126;5.596;2023-08-30T15:40:10;2.13;;;1.35;;
17564;SDS011;62994;52.126;5.596;2023-08-30T15:42:38;1.52;;;1.30;;
17564;SDS011;62994;52.126;5.596;2023-08-30T15:45:05;3.42;;;1.42;;
17564;SDS011;62994;52.126;5.596;2023-08-30T15:47:34;1.95;;;1.60;;
17564;SDS011;62994;52.126;5.596;2023-08-30T15:50:02;1.98;;;1.42;;
17564;SDS011;62994;52.126;5.596;2023-08-30T15:52:29;1.60;;;1.50;;
17564;SDS011;62994;52.126;5.596;2023-08-30T15:54:57;3.75;;;1.27;;
17564;SDS011;62994;52.126;5.596;2023-08-30T15:57:29;3.75;;;1.50;;
17564;SDS011;62994;52.126;5.596;2023-08-30T15:59:56;1.52;;;1.42;;
17564;SDS011;62994;52.126;5.596;2023-08-30T16:02:23;1.55;;;1.45;;
17564;SDS011;62994;52.126;5.596;2023-08-30T16:04:56;3.85;;;1.45;;
17564;SDS011;62994;52.126;5.596;2023-08-30T16:07:24;2.13;;;1.33;;
17564;SDS011;62994;52.126;5.596;2023-08-30T16:09:51;3.15;;;1.58;;
17564;SDS011;62994;52.126;5.596;2023-08-30T16:12:20;2.20;;;1.35;;